sensor_id;sensor_type;location;lat;lon;timestamp;pressure;altitude;pressure_sealevel;temperature;humidity
4972;BME280;2501;51.214;6.768;2023-04-01T00:01:12;99078.41;;;9.54;100.00
4972;BME280;2501;51.214;6.768;2023-04-01T00:03:44;99077.69;;;9.46;100.00
4972;BME280;2501;51.214;6.768;2023-04-01T00:06:15;99075.97;;;9.45;100.00
4972;BME280;2501;51.214;6.768;2023-04-01T00:08:44;99074.28;;;9.41;100.00
4972;BME280;2501;51.214;6.768;2023-04-01T00:11:13;99074.19;;;9.47;100.00
4972;BME280;2501;51.214;6.768;2023-04-01T00:13:43;99073.38;;;9.42;100.00
4972;BME280;2501;51.214;6.768;2023-04-01T00:16:12;99080.38;;;9.41;100.00
4972;BME280;2501;51.214;6.768;2023-04-01T00:18:40;99075.19;;;9.38;100.00
4972;BME280;2501;51.214;6.768;2023-04-01T00:21:12;99077.78;;;9.40;100.00
4972;BME280;2501;51.214;6.768;2023-04-01T00:23:41;99082.84;;;9.51;100.00
4972;BME280;2501;51.214;6.768;2023-04-01T00:26:09;99083.78;;;9.47;100.00
4972;BME280;2501;51.214;6.768;2023-04-01T00:28:40;99071.53;;;9.49;100.00
4972;BME280;2501;51.214;6.768;2023-04-01T00:31:09;99071.34;;;9.61;100.00
4972;BME280;2501;51.214;6.768;2023-04-01T00:33:38;99076.88;;;9.41;100.00
4972;BME280;2501;51.214;6.768;2023-04-01T00:36:08;99070.69;;;9.48;100.00
4972;BME280;2501;51.214;6.768;2023-04-01T00:38:40;99078.59;;;9.43;100.00
4972;BME280;2501;51.214;6.768;2023-04-01T00:41:11;99072.38;;;9.52;100.00
4972;BME280;2501;51.214;6.768;2023-04-01T00:43:41;99069.81;;;9.48;100.00
4972;BME280;2501;51.214;6.768;2023-04-01T00:46:10;99064.59;;;9.48;100.00
4972;BME280;2501;51.214;6.768;2023-04-01T00:48:41;99072.50;;;9.43;100.00
4972;BME280;2501;51.214;6.768;2023-04-01T00:51:13;99060.19;;;9.50;100.00
4972;BME280;2501;51.214;6.768;2023-04-01T00:53:49;99068.97;;;9.46;100.00
4972;BME280;2501;51.214;6.768;2023-04-01T00:56:21;99065.56;;;9.39;100.00
4972;BME280;2501;51.214;6.768;2023-04-01T00:58:52;99062.00;;;9.45;100.00
4972;BME280;2501;51.214;6.768;2023-04-01T01:01:23;99061.16;;;9.44;100.00
4972;BME280;2501;51.214;6.768;2023-04-01T01:03:52;99064.66;;;9.43;100.00
4972;BME280;2501;51.214;6.768;2023-04-01T01:06:30;99053.41;;;9.36;100.00
4972;BME280;2501;51.214;6.768;2023-04-01T01:09:18;99054.13;;;9.46;100.00
4972;BME280;2501;51.214;6.768;2023-04-01T01:11:52;99061.16;;;9.44;100.00
4972;BME280;2501;51.214;6.768;2023-04-01T01:14:30;99058.56;;;9.41;100.00
4972;BME280;2501;51.214;6.768;2023-04-01T01:17:07;99062.88;;;9.45;100.00
4972;BME280;2501;51.214;6.768;2023-04-01T01:19:57;99048.13;;;9.39;100.00
4972;BME280;2501;51.214;6.768;2023-04-01T01:22:46;99055.88;;;9.46;100.00
4972;BME280;2501;51.214;6.768;2023-04-01T01:25:32;99060.06;;;9.56;100.00
4972;BME280;2501;51.214;6.768;2023-04-01T01:28:17;99044.66;;;9.37;100.00
4972;BME280;2501;51.214;6.768;2023-04-01T01:30:57;99055.88;;;9.47;100.00
4972;BME280;2501;51.214;6.768;2023-04-01T01:33:42;99048.84;;;9.51;100.00
4972;BME280;2501;51.214;6.768;2023-04-01T01:36:18;99056.03;;;9.36;100.00
4972;BME280;2501;51.214;6.768;2023-04-01T01:38:50;99057.97;;;9.25;100.00
4972;BME280;2501;51.214;6.768;2023-04-01T01:41:20;99053.69;;;9.20;100.00
4972;BME280;2501;51.214;6.768;2023-04-01T01:43:52;99056.38;;;9.17;100.00
4972;BME280;2501;51.214;6.768;2023-04-01T01:46:24;99051.94;;;9.20;100.00
4972;BME280;2501;51.214;6.768;2023-04-01T01:48:54;99055.47;;;9.18;100.00
4972;BME280;2501;51.214;6.768;2023-04-01T01:51:27;99053.63;;;9.23;100.00
4972;BME280;2501;51.214;6.768;2023-04-01T01:53:55;99052.72;;;9.27;100.00
4972;BME280;2501;51.214;6.768;2023-04-01T01:56:27;99046.53;;;9.31;100.00
4972;BME280;2501;51.214;6.768;2023-04-01T01:58:58;99048.31;;;9.29;100.00
4972;BME280;2501;51.214;6.768;2023-04-01T02:01:31;99051.72;;;9.34;100.00
4972;BME280;2501;51.214;6.768;2023-04-01T02:04:01;99050.25;;;9.18;100.00
4972;BME280;2501;51.214;6.768;2023-04-01T02:06:37;99055.38;;;9.24;100.00
4972;BME280;2501;51.214;6.768;2023-04-01T02:09:08;99056.22;;;9.24;100.00
4972;BME280;2501;51.214;6.768;2023-04-01T02:11:42;99053.53;;;9.29;100.00
4972;BME280;2501;51.214;6.768;2023-04-01T02:14:14;99045.84;;;9.18;100.00
4972;BME280;2501;51.214;6.768;2023-04-01T02:16:47;99051.13;;;9.17;100.00
4972;BME280;2501;51.214;6.768;2023-04-01T02:19:18;99050.16;;;9.22;100.00
4972;BME280;2501;51.214;6.768;2023-04-01T02:21:54;99052.91;;;9.15;100.00
4972;BME280;2501;51.214;6.768;2023-04-01T02:24:25;99043.28;;;9.17;100.00
4972;BME280;2501;51.214;6.768;2023-04-01T02:26:54;99045.94;;;9.15;100.00
4972;BME280;2501;51.214;6.768;2023-04-01T02:29:24;99046.72;;;9.19;100.00
4972;BME280;2501;51.214;6.768;2023-04-01T02:31:53;99051.25;;;9.07;100.00
4972;BME280;2501;51.214;6.768;2023-04-01T02:34:23;99055.53;;;9.15;100.00
4972;BME280;2501;51.214;6.768;2023-04-01T02:36:55;99058.13;;;9.16;100.00
4972;BME280;2501;51.214;6.768;2023-04-01T02:39:25;99059.09;;;9.09;100.00
4972;BME280;2501;51.214;6.768;2023-04-01T02:41:53;99054.66;;;9.14;100.00
4972;BME280;2501;51.214;6.768;2023-04-01T02:44:22;99060.88;;;9.05;100.00
4972;BME280;2501;51.214;6.768;2023-04-01T02:46:50;99065.38;;;8.97;100.00
4972;BME280;2501;51.214;6.768;2023-04-01T02:49:19;99061.97;;;8.91;100.00
4972;BME280;2501;51.214;6.768;2023-04-01T02:51:47;99051.31;;;9.04;100.00
4972;BME280;2501;51.214;6.768;2023-04-01T02:54:19;99070.59;;;8.97;100.00
4972;BME280;2501;51.214;6.768;2023-04-01T02:56:48;99068.03;;;8.93;100.00
4972;BME280;2501;51.214;6.768;2023-04-01T02:59:16;99075.84;;;8.96;100.00
4972;BME280;2501;51.214;6.768;2023-04-01T03:01:45;99068.84;;;8.98;100.00
4972;BME280;2501;51.214;6.768;2023-04-01T03:04:13;99071.28;;;9.08;100.00
4972;BME280;2501;51.214;6.768;2023-04-01T03:06:41;99069.53;;;9.09;100.00
4972;BME280;2501;51.214;6.768;2023-04-01T03:09:10;99074.72;;;9.12;100.00
4972;BME280;2501;51.214;6.768;2023-04-01T03:11:42;99067.78;;;9.11;100.00
4972;BME280;2501;51.214;6.768;2023-04-01T03:14:10;99074.81;;;9.06;100.00
4972;BME280;2501;51.214;6.768;2023-04-01T03:16:39;99078.28;;;9.08;100.00
4972;BME280;2501;51.214;6.768;2023-04-01T03:19:07;99079.13;;;9.10;100.00
4972;BME280;2501;51.214;6.768;2023-04-01T03:21:35;99081.63;;;9.18;100.00
4972;BME280;2501;51.214;6.768;2023-04-01T03:24:04;99079.19;;;9.05;100.00
4972;BME280;2501;51.214;6.768;2023-04-01T03:26:33;99080.84;;;9.11;100.00
4972;BME280;2501;51.214;6.768;2023-04-01T03:29:04;99078.25;;;9.10;100.00
4972;BME280;2501;51.214;6.768;2023-04-01T03:31:32;99085.19;;;9.14;100.00
4972;BME280;2501;51.214;6.768;2023-04-01T03:34:01;99085.13;;;9.17;100.00
4972;BME280;2501;51.214;6.768;2023-04-01T03:36:29;99085.03;;;9.21;100.00
4972;BME280;2501;51.214;6.768;2023-04-01T03:38:57;99092.13;;;9.15;100.00
4972;BME280;2501;51.214;6.768;2023-04-01T03:41:26;99093.09;;;9.09;100.00
4972;BME280;2501;51.214;6.768;2023-04-01T03:43:54;99095.69;;;9.11;100.00
4972;BME280;2501;51.214;6.768;2023-04-01T03:46:25;99086.94;;;9.13;100.00
4972;BME280;2501;51.214;6.768;2023-04-01T03:48:54;99090.47;;;9.09;100.00
4972;BME280;2501;51.214;6.768;2023-04-01T03:51:22;99090.88;;;9.38;100.00
4972;BME280;2501;51.214;6.768;2023-04-01T03:53:51;99096.59;;;9.08;100.00
4972;BME280;2501;51.214;6.768;2023-04-01T03:56:19;99092.28;;;9.02;100.00
4972;BME280;2501;51.214;6.768;2023-04-01T03:58:48;99099.19;;;9.10;100.00
4972;BME280;2501;51.214;6.768;2023-04-01T04:01:18;99090.47;;;9.07;100.00
4972;BME280;2501;51.214;6.768;2023-04-01T04:03:50;99088.81;;;9.02;100.00
4972;BME280;2501;51.214;6.768;2023-04-01T04:06:19;99101.03;;;9.01;100.00
4972;BME280;2501;51.214;6.768;2023-04-01T04:08:47;99101.06;;;9.00;100.00
4972;BME280;2501;51.214;6.768;2023-04-01T04:11:17;99099.41;;;8.93;100.00
4972;BME280;2501;51.214;6.768;2023-04-01T04:13:46;99092.38;;;8.99;100.00
4972;BME280;2501;51.214;6.768;2023-04-01T04:16:16;99104.63;;;8.94;100.00
4972;BME280;2501;51.214;6.768;2023-04-01T04:18:44;99098.50;;;8.95;100.00
4972;BME280;2501;51.214;6.768;2023-04-01T04:21:15;99098.47;;;8.98;100.00
4972;BME280;2501;51.214;6.768;2023-04-01T04:23:47;99094.94;;;9.01;100.00
4972;BME280;2501;51.214;6.768;2023-04-01T04:26:16;99108.81;;;9.04;100.00
4972;BME280;2501;51.214;6.768;2023-04-01T04:28:44;99105.31;;;9.07;100.00
4972;BME280;2501;51.214;6.768;2023-04-01T04:31:18;99106.22;;;9.04;100.00
4972;BME280;2501;51.214;6.768;2023-04-01T04:33:47;99111.31;;;9.15;100.00
4972;BME280;2501;51.214;6.768;2023-04-01T04:36:19;99112.19;;;9.14;100.00
4972;BME280;2501;51.214;6.768;2023-04-01T04:38:48;99103.72;;;8.97;100.00
4972;BME280;2501;51.214;6.768;2023-04-01T04:41:17;99113.34;;;8.93;100.00
4972;BME280;2501;51.214;6.768;2023-04-01T04:43:51;99112.50;;;8.93;100.00
4972;BME280;2501;51.214;6.768;2023-04-01T04:46:20;99110.69;;;8.98;100.00
4972;BME280;2501;51.214;6.768;2023-04-01T04:48:49;99115.06;;;8.97;100.00
4972;BME280;2501;51.214;6.768;2023-04-01T04:51:21;99116.72;;;9.01;100.00
4972;BME280;2501;51.214;6.768;2023-04-01T04:53:50;99117.56;;;9.02;100.00
4972;BME280;2501;51.214;6.768;2023-04-01T04:56:19;99112.41;;;8.99;100.00
4972;BME280;2501;51.214;6.768;2023-04-01T04:58:48;99118.56;;;8.95;100.00
4972;BME280;2501;51.214;6.768;2023-04-01T05:01:16;99126.28;;;9.04;100.00
4972;BME280;2501;51.214;6.768;2023-04-01T05:03:45;99129.03;;;8.95;100.00
4972;BME280;2501;51.214;6.768;2023-04-01T05:06:14;99122.91;;;8.97;100.00
4972;BME280;2501;51.214;6.768;2023-04-01T05:08:46;99129.03;;;8.95;100.00
4972;BME280;2501;51.214;6.768;2023-04-01T05:11:17;99132.53;;;8.92;100.00
4972;BME280;2501;51.214;6.768;2023-04-01T05:13:46;99132.44;;;9.00;100.00
4972;BME280;2501;51.214;6.768;2023-04-01T05:16:17;99133.41;;;8.93;100.00
4972;BME280;2501;51.214;6.768;2023-04-01T05:18:49;99136.06;;;8.88;100.00
4972;BME280;2501;51.214;6.768;2023-04-01T05:21:17;99143.94;;;8.87;100.00
4972;BME280;2501;51.214;6.768;2023-04-01T05:23:49;99136.88;;;8.93;100.00
4972;BME280;2501;51.214;6.768;2023-04-01T05:26:17;99140.16;;;9.09;100.00
4972;BME280;2501;51.214;6.768;2023-04-01T05:28:45;99147.34;;;8.93;100.00
4972;BME280;2501;51.214;6.768;2023-04-01T05:31:14;99138.38;;;9.11;100.00
4972;BME280;2501;51.214;6.768;2023-04-01T05:33:42;99144.66;;;8.99;100.00
4972;BME280;2501;51.214;6.768;2023-04-01T05:36:13;99138.44;;;9.06;100.00
4972;BME280;2501;51.214;6.768;2023-04-01T05:38:42;99147.41;;;9.52;100.00
4972;BME280;2501;51.214;6.768;2023-04-01T05:41:14;99149.53;;;9.24;100.00
4972;BME280;2501;51.214;6.768;2023-04-01T05:43:43;99154.72;;;9.27;100.00
4972;BME280;2501;51.214;6.768;2023-04-01T05:46:11;99146.38;;;9.60;100.00
4972;BME280;2501;51.214;6.768;2023-04-01T05:48:39;99157.38;;;9.24;100.00
4972;BME280;2501;51.214;6.768;2023-04-01T05:51:12;99152.16;;;9.24;100.00
4972;BME280;2501;51.214;6.768;2023-04-01T05:53:41;99160.22;;;9.07;100.00
4972;BME280;2501;51.214;6.768;2023-04-01T05:56:09;99164.84;;;8.88;100.00
4972;BME280;2501;51.214;6.768;2023-04-01T05:58:40;99162.97;;;8.99;100.00
4972;BME280;2501;51.214;6.768;2023-04-01T06:01:10;99165.75;;;8.84;100.00
4972;BME280;2501;51.214;6.768;2023-04-01T06:03:39;99161.31;;;8.91;100.00
4972;BME280;2501;51.214;6.768;2023-04-01T06:06:13;99164.63;;;9.03;100.00
4972;BME280;2501;51.214;6.768;2023-04-01T06:08:42;99159.34;;;9.08;100.00
4972;BME280;2501;51.214;6.768;2023-04-01T06:11:19;99170.34;;;9.34;100.00
4972;BME280;2501;51.214;6.768;2023-04-01T06:14:04;99168.72;;;9.23;100.00
4972;BME280;2501;51.214;6.768;2023-04-01T06:16:43;99169.00;;;9.03;100.00
4972;BME280;2501;51.214;6.768;2023-04-01T06:19:24;99166.28;;;9.11;100.00
4972;BME280;2501;51.214;6.768;2023-04-01T06:22:12;99170.81;;;8.99;100.00
4972;BME280;2501;51.214;6.768;2023-04-01T06:24:55;99177.41;;;9.26;100.00
4972;BME280;2501;51.214;6.768;2023-04-01T06:27:42;99180.19;;;9.14;100.00
4972;BME280;2501;51.214;6.768;2023-04-01T06:30:33;99174.50;;;9.48;100.00
4972;BME280;2501;51.214;6.768;2023-04-01T06:33:13;99180.97;;;9.21;100.00
4972;BME280;2501;51.214;6.768;2023-04-01T06:36:09;99181.09;;;9.12;100.00
4972;BME280;2501;51.214;6.768;2023-04-01T06:39:08;99178.53;;;9.07;100.00
4972;BME280;2501;51.214;6.768;2023-04-01T06:42:11;99187.41;;;8.97;100.00
4972;BME280;2501;51.214;6.768;2023-04-01T06:44:49;99190.03;;;8.95;100.00
4972;BME280;2501;51.214;6.768;2023-04-01T06:47:34;99184.44;;;9.21;100.00
4972;BME280;2501;51.214;6.768;2023-04-01T06:50:12;99184.31;;;9.32;100.00
4972;BME280;2501;51.214;6.768;2023-04-01T06:52:50;99191.34;;;9.27;100.00
4972;BME280;2501;51.214;6.768;2023-04-01T06:55:27;99195.88;;;9.16;100.00
4972;BME280;2501;51.214;6.768;2023-04-01T06:57:59;99196.50;;;9.33;100.00
4972;BME280;2501;51.214;6.768;2023-04-01T07:00:31;99199.97;;;9.35;100.00
4972;BME280;2501;51.214;6.768;2023-04-01T07:03:08;99197.41;;;9.32;100.00
4972;BME280;2501;51.214;6.768;2023-04-01T07:05:43;99196.63;;;9.24;100.00
4972;BME280;2501;51.214;6.768;2023-04-01T07:08:14;99203.53;;;9.31;100.00
4972;BME280;2501;51.214;6.768;2023-04-01T07:10:47;99200.72;;;9.43;100.00
4972;BME280;2501;51.214;6.768;2023-04-01T07:13:21;99195.50;;;9.41;100.00
4972;BME280;2501;51.214;6.768;2023-04-01T07:15:58;99212.16;;;9.36;100.00
4972;BME280;2501;51.214;6.768;2023-04-01T07:18:38;99210.44;;;9.35;100.00
4972;BME280;2501;51.214;6.768;2023-04-01T07:21:11;99213.53;;;9.61;100.00
4972;BME280;2501;51.214;6.768;2023-04-01T07:23:45;99210.97;;;9.58;100.00
4972;BME280;2501;51.214;6.768;2023-04-01T07:26:17;99212.00;;;9.48;100.00
4972;BME280;2501;51.214;6.768;2023-04-01T07:28:46;99224.00;;;9.61;100.00
4972;BME280;2501;51.214;6.768;2023-04-01T07:31:23;99225.16;;;9.40;100.00
4972;BME280;2501;51.214;6.768;2023-04-01T07:34:03;99236.38;;;9.52;100.00
4972;BME280;2501;51.214;6.768;2023-04-01T07:36:39;99235.47;;;9.53;100.00
4972;BME280;2501;51.214;6.768;2023-04-01T07:39:20;99240.03;;;9.37;100.00
4972;BME280;2501;51.214;6.768;2023-04-01T07:41:59;99238.22;;;9.43;100.00
4972;BME280;2501;51.214;6.768;2023-04-01T07:44:37;99241.44;;;9.64;100.00
4972;BME280;2501;51.214;6.768;2023-04-01T07:47:32;99250.22;;;9.58;100.00
4972;BME280;2501;51.214;6.768;2023-04-01T07:50:11;99246.84;;;9.52;100.00
4972;BME280;2501;51.214;6.768;2023-04-01T07:52:47;99252.22;;;9.41;100.00
4972;BME280;2501;51.214;6.768;2023-04-01T07:55:20;99255.00;;;9.27;100.00
4972;BME280;2501;51.214;6.768;2023-04-01T07:57:57;99264.38;;;9.43;100.00
4972;BME280;2501;51.214;6.768;2023-04-01T08:00:34;99267.00;;;9.43;100.00
4972;BME280;2501;51.214;6.768;2023-04-01T08:03:16;99264.13;;;9.62;100.00
4972;BME280;2501;51.214;6.768;2023-04-01T08:05:54;99272.09;;;9.53;100.00
4972;BME280;2501;51.214;6.768;2023-04-01T08:08:37;99269.63;;;9.43;100.00
4972;BME280;2501;51.214;6.768;2023-04-01T08:11:19;99275.47;;;9.62;100.00
4972;BME280;2501;51.214;6.768;2023-04-01T08:13:55;99285.75;;;9.76;100.00
4972;BME280;2501;51.214;6.768;2023-04-01T08:16:33;99280.47;;;9.79;100.00
4972;BME280;2501;51.214;6.768;2023-04-01T08:19:09;99287.63;;;9.68;100.00
4972;BME280;2501;51.214;6.768;2023-04-01T08:21:47;99291.03;;;9.73;100.00
4972;BME280;2501;51.214;6.768;2023-04-01T08:24:22;99300.38;;;9.91;100.00
4972;BME280;2501;51.214;6.768;2023-04-01T08:26:58;99299.63;;;9.83;100.00
4972;BME280;2501;51.214;6.768;2023-04-01T08:29:36;99302.38;;;9.73;100.00
4972;BME280;2501;51.214;6.768;2023-04-01T08:32:10;99302.22;;;9.86;100.00
4972;BME280;2501;51.214;6.768;2023-04-01T08:34:42;99299.84;;;9.67;100.00
4972;BME280;2501;51.214;6.768;2023-04-01T08:37:20;99308.41;;;9.80;100.00
4972;BME280;2501;51.214;6.768;2023-04-01T08:39:52;99318.25;;;9.60;100.00
4972;BME280;2501;51.214;6.768;2023-04-01T08:42:45;99315.38;;;9.81;100.00
4972;BME280;2501;51.214;6.768;2023-04-01T08:45:30;99312.22;;;9.53;100.00
4972;BME280;2501;51.214;6.768;2023-04-01T08:48:36;99314.72;;;9.65;100.00
4972;BME280;2501;51.214;6.768;2023-04-01T08:54:20;99333.13;;;9.58;100.00
4972;BME280;2501;51.214;6.768;2023-04-01T08:56:59;99339.78;;;9.83;100.00
4972;BME280;2501;51.214;6.768;2023-04-01T08:59:50;99340.97;;;9.59;100.00
4972;BME280;2501;51.214;6.768;2023-04-01T09:02:49;99346.16;;;9.61;100.00
4972;BME280;2501;51.214;6.768;2023-04-01T09:05:30;99347.09;;;9.57;100.00
4972;BME280;2501;51.214;6.768;2023-04-01T09:08:15;99344.41;;;9.61;100.00
4972;BME280;2501;51.214;6.768;2023-04-01T09:11:10;99350.38;;;9.72;100.00
4972;BME280;2501;51.214;6.768;2023-04-01T09:17:01;99366.09;;;9.71;100.00
4972;BME280;2501;51.214;6.768;2023-04-01T09:19:51;99362.38;;;9.89;100.00
4972;BME280;2501;51.214;6.768;2023-04-01T09:22:36;99367.81;;;9.75;100.00
4972;BME280;2501;51.214;6.768;2023-04-01T09:25:27;99363.38;;;9.82;100.00
4972;BME280;2501;51.214;6.768;2023-04-01T09:28:09;99368.44;;;9.94;100.00
4972;BME280;2501;51.214;6.768;2023-04-01T09:30:58;99371.44;;;9.63;100.00
4972;BME280;2501;51.214;6.768;2023-04-01T09:33:55;99371.94;;;9.93;100.00
4972;BME280;2501;51.214;6.768;2023-04-01T09:36:40;99384.19;;;9.91;100.00
4972;BME280;2501;51.214;6.768;2023-04-01T09:39:32;99386.16;;;9.73;100.00
4972;BME280;2501;51.214;6.768;2023-04-01T09:42:29;99392.19;;;9.78;100.00
4972;BME280;2501;51.214;6.768;2023-04-01T09:45:08;99378.88;;;9.95;100.00
4972;BME280;2501;51.214;6.768;2023-04-01T09:47:57;99380.69;;;9.92;100.00
4972;BME280;2501;51.214;6.768;2023-04-01T09:50:38;99392.16;;;9.83;100.00
4972;BME280;2501;51.214;6.768;2023-04-01T09:53:18;99401.59;;;9.95;100.00
4972;BME280;2501;51.214;6.768;2023-04-01T09:56:12;99394.13;;;9.66;100.00
4972;BME280;2501;51.214;6.768;2023-04-01T09:59:12;99407.19;;;9.67;100.00
4972;BME280;2501;51.214;6.768;2023-04-01T10:01:54;99398.28;;;9.81;100.00
4972;BME280;2501;51.214;6.768;2023-04-01T10:07:59;99410.31;;;9.97;100.00
4972;BME280;2501;51.214;6.768;2023-04-01T10:10:59;99405.94;;;9.97;100.00
4972;BME280;2501;51.214;6.768;2023-04-01T10:14:14;99418.97;;;10.03;100.00
4972;BME280;2501;51.214;6.768;2023-04-01T10:20:20;99425.72;;;10.21;100.00
4972;BME280;2501;51.214;6.768;2023-04-01T10:23:10;99430.25;;;10.05;100.00
4972;BME280;2501;51.214;6.768;2023-04-01T10:26:19;99421.31;;;10.23;100.00
4972;BME280;2501;51.214;6.768;2023-04-01T10:29:23;99428.59;;;10.00;100.00
4972;BME280;2501;51.214;6.768;2023-04-01T10:32:29;99428.38;;;10.17;100.00
4972;BME280;2501;51.214;6.768;2023-04-01T10:44:55;99441.75;;;9.94;100.00
4972;BME280;2501;51.214;6.768;2023-04-01T10:47:56;99441.78;;;9.92;100.00
4972;BME280;2501;51.214;6.768;2023-04-01T10:54:03;99450.28;;;10.11;100.00
4972;BME280;2501;51.214;6.768;2023-04-01T10:56:48;99451.09;;;10.15;100.00
4972;BME280;2501;51.214;6.768;2023-04-01T11:02:40;99444.91;;;10.22;100.00
4972;BME280;2501;51.214;6.768;2023-04-01T11:11:42;99461.47;;;10.24;100.00
4972;BME280;2501;51.214;6.768;2023-04-01T11:14:42;99457.69;;;9.77;100.00
4972;BME280;2501;51.214;6.768;2023-04-01T11:23:26;99478.34;;;10.03;100.00
4972;BME280;2501;51.214;6.768;2023-04-01T11:26:07;99478.16;;;10.20;100.00
4972;BME280;2501;51.214;6.768;2023-04-01T11:28:54;99473.00;;;10.09;100.00
4972;BME280;2501;51.214;6.768;2023-04-01T11:31:42;99483.31;;;10.24;100.00
4972;BME280;2501;51.214;6.768;2023-04-01T11:34:36;99479.13;;;10.06;100.00
4972;BME280;2501;51.214;6.768;2023-04-01T11:37:20;99483.53;;;10.04;100.00
4972;BME280;2501;51.214;6.768;2023-04-01T11:40:02;99493.97;;;10.09;100.00
4972;BME280;2501;51.214;6.768;2023-04-01T11:42:40;99492.19;;;10.12;100.00
4972;BME280;2501;51.214;6.768;2023-04-01T11:45:17;99487.84;;;10.10;100.00
4972;BME280;2501;51.214;6.768;2023-04-01T11:48:02;99497.28;;;10.25;100.00
4972;BME280;2501;51.214;6.768;2023-04-01T11:50:46;99497.16;;;10.35;100.00
4972;BME280;2501;51.214;6.768;2023-04-01T11:53:29;99509.38;;;10.36;100.00
4972;BME280;2501;51.214;6.768;2023-04-01T11:56:09;99507.53;;;10.41;100.00
4972;BME280;2501;51.214;6.768;2023-04-01T11:59:04;99512.09;;;10.29;100.00
4972;BME280;2501;51.214;6.768;2023-04-01T12:01:48;99519.88;;;10.35;100.00
4972;BME280;2501;51.214;6.768;2023-04-01T12:04:36;99516.22;;;10.48;100.00
4972;BME280;2501;51.214;6.768;2023-04-01T12:07:17;99523.47;;;10.26;100.00
4972;BME280;2501;51.214;6.768;2023-04-01T12:09:56;99519.81;;;10.39;100.00
4972;BME280;2501;51.214;6.768;2023-04-01T12:12:35;99531.28;;;10.31;100.00
4972;BME280;2501;51.214;6.768;2023-04-01T12:15:19;99523.38;;;10.35;100.00
4972;BME280;2501;51.214;6.768;2023-04-01T12:17:55;99539.03;;;10.40;100.00
4972;BME280;2501;51.214;6.768;2023-04-01T12:20:36;99533.91;;;10.29;100.00
4972;BME280;2501;51.214;6.768;2023-04-01T12:23:17;99533.91;;;10.31;100.00
4972;BME280;2501;51.214;6.768;2023-04-01T12:26:00;99543.66;;;10.17;100.00
4972;BME280;2501;51.214;6.768;2023-04-01T12:28:44;99548.06;;;10.11;100.00
4972;BME280;2501;51.214;6.768;2023-04-01T12:31:26;99546.06;;;10.36;100.00
4972;BME280;2501;51.214;6.768;2023-04-01T12:37:13;99555.63;;;10.40;100.00
4972;BME280;2501;51.214;6.768;2023-04-01T12:39:59;99561.63;;;10.50;100.00
4972;BME280;2501;51.214;6.768;2023-04-01T12:42:51;99565.09;;;10.54;100.00
4972;BME280;2501;51.214;6.768;2023-04-01T12:45:31;99564.03;;;10.67;100.00
4972;BME280;2501;51.214;6.768;2023-04-01T12:48:21;99572.09;;;10.52;100.00
4972;BME280;2501;51.214;6.768;2023-04-01T12:51:24;99566.63;;;10.68;100.00
4972;BME280;2501;51.214;6.768;2023-04-01T12:54:25;99571.72;;;10.77;100.00
4972;BME280;2501;51.214;6.768;2023-04-01T12:57:10;99578.38;;;11.03;100.00
4972;BME280;2501;51.214;6.768;2023-04-01T12:59:57;99564.16;;;11.18;100.00
4972;BME280;2501;51.214;6.768;2023-04-01T13:02:39;99573.97;;;11.06;100.00
4972;BME280;2501;51.214;6.768;2023-04-01T13:05:36;99573.66;;;10.66;100.00
4972;BME280;2501;51.214;6.768;2023-04-01T13:08:28;99581.78;;;10.43;100.00
4972;BME280;2501;51.214;6.768;2023-04-01T13:11:16;99583.53;;;10.44;100.00
4972;BME280;2501;51.214;6.768;2023-04-01T13:14:05;99588.69;;;10.54;100.00
4972;BME280;2501;51.214;6.768;2023-04-01T13:16:39;99593.91;;;10.54;100.00
4972;BME280;2501;51.214;6.768;2023-04-01T13:19:16;99605.16;;;10.62;100.00
4972;BME280;2501;51.214;6.768;2023-04-01T13:21:54;99600.84;;;10.58;100.00
4972;BME280;2501;51.214;6.768;2023-04-01T13:24:40;99602.59;;;10.57;100.00
4972;BME280;2501;51.214;6.768;2023-04-01T13:27:16;99601.00;;;10.45;100.00
4972;BME280;2501;51.214;6.768;2023-04-01T13:30:02;99600.84;;;10.58;100.00
4972;BME280;2501;51.214;6.768;2023-04-01T13:32:41;99611.00;;;10.84;100.00
4972;BME280;2501;51.214;6.768;2023-04-01T13:35:23;99598.59;;;10.96;100.00
4972;BME280;2501;51.214;6.768;2023-04-01T13:38:06;99611.59;;;11.05;99.87
4972;BME280;2501;51.214;6.768;2023-04-01T13:40:47;99611.28;;;10.61;99.41
4972;BME280;2501;51.214;6.768;2023-04-01T13:43:23;99607.75;;;10.65;99.74
4972;BME280;2501;51.214;6.768;2023-04-01T13:49:15;99620.66;;;10.80;99.54
4972;BME280;2501;51.214;6.768;2023-04-01T13:55:06;99621.56;;;10.77;99.52
4972;BME280;2501;51.214;6.768;2023-04-01T13:57:54;99619.19;;;10.58;99.63
4972;BME280;2501;51.214;6.768;2023-04-01T14:00:38;99627.88;;;10.63;99.95
4972;BME280;2501;51.214;6.768;2023-04-01T14:03:27;99632.28;;;10.58;99.74
4972;BME280;2501;51.214;6.768;2023-04-01T14:06:05;99631.91;;;10.90;99.07
4972;BME280;2501;51.214;6.768;2023-04-01T14:08:50;99635.19;;;11.07;97.77
4972;BME280;2501;51.214;6.768;2023-04-01T14:11:25;99642.94;;;11.14;96.58
4972;BME280;2501;51.214;6.768;2023-04-01T14:14:03;99639.94;;;11.40;96.27
4972;BME280;2501;51.214;6.768;2023-04-01T14:16:57;99649.69;;;11.31;94.59
4972;BME280;2501;51.214;6.768;2023-04-01T14:19:50;99638.97;;;11.46;95.32
4972;BME280;2501;51.214;6.768;2023-04-01T14:22:26;99649.63;;;11.35;94.95
4972;BME280;2501;51.214;6.768;2023-04-01T14:25:16;99648.38;;;11.01;95.89
4972;BME280;2501;51.214;6.768;2023-04-01T14:27:56;99655.34;;;11.03;96.84
4972;BME280;2501;51.214;6.768;2023-04-01T14:30:46;99650.16;;;10.97;97.71
4972;BME280;2501;51.214;6.768;2023-04-01T14:33:33;99660.81;;;10.85;98.32
4972;BME280;2501;51.214;6.768;2023-04-01T14:36:39;99658.81;;;11.05;98.59
4972;BME280;2501;51.214;6.768;2023-04-01T14:39:38;99662.00;;;11.27;97.29
4972;BME280;2501;51.214;6.768;2023-04-01T14:42:21;99661.91;;;11.35;96.25
4972;BME280;2501;51.214;6.768;2023-04-01T14:45:12;99655.63;;;11.43;95.12
4972;BME280;2501;51.214;6.768;2023-04-01T14:47:48;99676.19;;;11.12;94.38
4972;BME280;2501;51.214;6.768;2023-04-01T14:50:24;99663.91;;;11.16;94.93
4972;BME280;2501;51.214;6.768;2023-04-01T14:52:59;99676.22;;;11.11;95.36
4972;BME280;2501;51.214;6.768;2023-04-01T14:55:48;99679.00;;;11.00;96.04
4972;BME280;2501;51.214;6.768;2023-04-01T14:58:22;99679.00;;;11.00;97.22
4972;BME280;2501;51.214;6.768;2023-04-01T15:01:01;99688.81;;;10.83;97.54
4972;BME280;2501;51.214;6.768;2023-04-01T15:03:40;99690.50;;;10.90;98.09
4972;BME280;2501;51.214;6.768;2023-04-01T15:06:40;99689.75;;;10.77;98.86
4972;BME280;2501;51.214;6.768;2023-04-01T15:09:21;99697.66;;;10.74;99.66